sensor_id;sensor_type;location;lat;lon;timestamp;temperature;humidity
16513;DHT22;8369;48.030;11.598;2023-12-28T00:01:45;4.20;99.90
16513;DHT22;8369;48.030;11.598;2023-12-28T00:04:13;4.20;99.90
16513;DHT22;8369;48.030;11.598;2023-12-28T00:06:39;4.10;99.90
16513;DHT22;8369;48.030;11.598;2023-12-28T00:09:08;4.00;99.90
16513;DHT22;8369;48.030;11.598;2023-12-28T00:11:36;3.90;99.90
16513;DHT22;8369;48.030;11.598;2023-12-28T00:14:03;3.90;99.90
16513;DHT22;8369;48.030;11.598;2023-12-28T00:16:31;3.80;99.90
16513;DHT22;8369;48.030;11.598;2023-12-28T00:19:05;3.70;99.90
16513;DHT22;8369;48.030;11.598;2023-12-28T00:21:33;3.60;99.90
16513;DHT22;8369;48.030;11.598;2023-12-28T00:23:59;3.50;99.90
16513;DHT22;8369;48.030;11.598;2023-12-28T00:26:27;3.40;99.90
16513;DHT22;8369;48.030;11.598;2023-12-28T00:28:56;3.30;99.90
16513;DHT22;8369;48.030;11.598;2023-12-28T00:31:23;3.30;99.90
16513;DHT22;8369;48.030;11.598;2023-12-28T00:33:49;3.20;99.90
16513;DHT22;8369;48.030;11.598;2023-12-28T00:36:16;3.10;99.90
16513;DHT22;8369;48.030;11.598;2023-12-28T00:38:43;3.10;99.90
16513;DHT22;8369;48.030;11.598;2023-12-28T00:41:11;3.00;99.90
16513;DHT22;8369;48.030;11.598;2023-12-28T00:43:38;2.90;99.90
16513;DHT22;8369;48.030;11.598;2023-12-28T00:46:04;2.90;99.90
16513;DHT22;8369;48.030;11.598;2023-12-28T00:48:32;2.80;99.90
16513;DHT22;8369;48.030;11.598;2023-12-28T00:50:59;2.80;99.90
16513;DHT22;8369;48.030;11.598;2023-12-28T00:53:26;2.70;99.90
16513;DHT22;8369;48.030;11.598;2023-12-28T00:55:53;2.70;99.90
16513;DHT22;8369;48.030;11.598;2023-12-28T00:58:19;2.70;99.90
16513;DHT22;8369;48.030;11.598;2023-12-28T01:00:46;2.70;99.90
16513;DHT22;8369;48.030;11.598;2023-12-28T01:03:12;2.70;99.90
16513;DHT22;8369;48.030;11.598;2023-12-28T01:05:38;2.60;99.90
16513;DHT22;8369;48.030;11.598;2023-12-28T01:08:04;2.60;99.90
16513;DHT22;8369;48.030;11.598;2023-12-28T01:10:31;2.50;99.90
16513;DHT22;8369;48.030;11.598;2023-12-28T01:12:57;2.50;99.90
16513;DHT22;8369;48.030;11.598;2023-12-28T01:15:23;2.50;99.90
16513;DHT22;8369;48.030;11.598;2023-12-28T01:17:49;2.50;99.90
16513;DHT22;8369;48.030;11.598;2023-12-28T01:20:15;2.50;99.90
16513;DHT22;8369;48.030;11.598;2023-12-28T01:22:42;2.50;99.90
16513;DHT22;8369;48.030;11.598;2023-12-28T01:25:08;2.60;99.90
16513;DHT22;8369;48.030;11.598;2023-12-28T01:27:35;2.70;99.90
16513;DHT22;8369;48.030;11.598;2023-12-28T01:30:01;2.80;99.90
16513;DHT22;8369;48.030;11.598;2023-12-28T01:32:27;3.00;99.90
16513;DHT22;8369;48.030;11.598;2023-12-28T01:34:54;3.20;99.90
16513;DHT22;8369;48.030;11.598;2023-12-28T01:37:21;3.40;99.90
16513;DHT22;8369;48.030;11.598;2023-12-28T01:39:47;3.50;99.90
16513;DHT22;8369;48.030;11.598;2023-12-28T01:42:14;3.60;99.90
16513;DHT22;8369;48.030;11.598;2023-12-28T01:44:40;3.70;99.90
16513;DHT22;8369;48.030;11.598;2023-12-28T01:47:08;3.80;99.90
16513;DHT22;8369;48.030;11.598;2023-12-28T01:49:39;3.90;99.90
16513;DHT22;8369;48.030;11.598;2023-12-28T01:52:07;4.00;99.90
16513;DHT22;8369;48.030;11.598;2023-12-28T01:54:35;4.00;99.90
16513;DHT22;8369;48.030;11.598;2023-12-28T01:57:03;4.00;99.90
16513;DHT22;8369;48.030;11.598;2023-12-28T01:59:31;4.10;99.90
16513;DHT22;8369;48.030;11.598;2023-12-28T02:01:58;4.10;99.90
16513;DHT22;8369;48.030;11.598;2023-12-28T02:04:26;4.10;99.90
16513;DHT22;8369;48.030;11.598;2023-12-28T02:07:00;4.10;99.90
16513;DHT22;8369;48.030;11.598;2023-12-28T02:09:26;4.10;99.90
16513;DHT22;8369;48.030;11.598;2023-12-28T02:11:54;4.10;99.90
16513;DHT22;8369;48.030;11.598;2023-12-28T02:14:22;4.10;99.90
16513;DHT22;8369;48.030;11.598;2023-12-28T02:19:56;4.10;99.90
16513;DHT22;8369;48.030;11.598;2023-12-28T02:22:26;4.00;99.90
16513;DHT22;8369;48.030;11.598;2023-12-28T02:27:20;3.90;99.90
16513;DHT22;8369;48.030;11.598;2023-12-28T02:29:46;3.80;99.90
16513;DHT22;8369;48.030;11.598;2023-12-28T02:32:14;3.70;99.90
16513;DHT22;8369;48.030;11.598;2023-12-28T02:34:44;3.70;99.90
16513;DHT22;8369;48.030;11.598;2023-12-28T02:37:13;3.60;99.90
16513;DHT22;8369;48.030;11.598;2023-12-28T02:39:42;3.50;99.90
16513;DHT22;8369;48.030;11.598;2023-12-28T02:42:09;3.50;99.90
16513;DHT22;8369;48.030;11.598;2023-12-28T02:44:37;3.40;99.90
16513;DHT22;8369;48.030;11.598;2023-12-28T02:47:04;3.40;99.90
16513;DHT22;8369;48.030;11.598;2023-12-28T02:49:31;3.30;99.90
16513;DHT22;8369;48.030;11.598;2023-12-28T02:51:58;3.30;99.90
16513;DHT22;8369;48.030;11.598;2023-12-28T02:54:26;3.20;99.90
16513;DHT22;8369;48.030;11.598;2023-12-28T02:56:53;3.20;99.90
16513;DHT22;8369;48.030;11.598;2023-12-28T02:59:20;3.20;99.90
16513;DHT22;8369;48.030;11.598;2023-12-28T03:01:46;3.10;99.90
16513;DHT22;8369;48.030;11.598;2023-12-28T03:04:13;3.00;99.90
16513;DHT22;8369;48.030;11.598;2023-12-28T03:06:39;3.00;99.90
16513;DHT22;8369;48.030;11.598;2023-12-28T03:09:07;2.90;99.90
16513;DHT22;8369;48.030;11.598;2023-12-28T03:11:35;2.90;99.90
16513;DHT22;8369;48.030;11.598;2023-12-28T03:14:01;2.80;99.90
16513;DHT22;8369;48.030;11.598;2023-12-28T03:16:29;2.80;99.90
16513;DHT22;8369;48.030;11.598;2023-12-28T03:18:56;2.70;99.90
16513;DHT22;8369;48.030;11.598;2023-12-28T03:21:23;2.60;99.90
16513;DHT22;8369;48.030;11.598;2023-12-28T03:23:50;2.60;99.90
16513;DHT22;8369;48.030;11.598;2023-12-28T03:26:18;2.60;99.90
16513;DHT22;8369;48.030;11.598;2023-12-28T03:28:45;2.50;99.90
16513;DHT22;8369;48.030;11.598;2023-12-28T03:31:12;2.50;99.90
16513;DHT22;8369;48.030;11.598;2023-12-28T03:33:39;2.40;99.90
16513;DHT22;8369;48.030;11.598;2023-12-28T03:36:06;2.40;99.90
16513;DHT22;8369;48.030;11.598;2023-12-28T03:38:33;2.40;99.90
16513;DHT22;8369;48.030;11.598;2023-12-28T03:41:00;2.40;99.90
16513;DHT22;8369;48.030;11.598;2023-12-28T03:43:27;2.30;99.90
16513;DHT22;8369;48.030;11.598;2023-12-28T03:45:56;2.30;99.90
16513;DHT22;8369;48.030;11.598;2023-12-28T03:48:22;2.30;99.90
16513;DHT22;8369;48.030;11.598;2023-12-28T03:50:49;2.20;99.90
16513;DHT22;8369;48.030;11.598;2023-12-28T03:53:15;2.20;99.90
16513;DHT22;8369;48.030;11.598;2023-12-28T03:55:42;2.20;99.90
16513;DHT22;8369;48.030;11.598;2023-12-28T03:58:08;2.20;99.90
16513;DHT22;8369;48.030;11.598;2023-12-28T04:00:36;2.20;99.90
16513;DHT22;8369;48.030;11.598;2023-12-28T04:03:12;2.20;99.90
16513;DHT22;8369;48.030;11.598;2023-12-28T04:05:40;2.20;99.90
16513;DHT22;8369;48.030;11.598;2023-12-28T04:08:06;2.20;99.90
16513;DHT22;8369;48.030;11.598;2023-12-28T04:10:34;2.20;99.90
16513;DHT22;8369;48.030;11.598;2023-12-28T04:13:01;2.20;99.90
16513;DHT22;8369;48.030;11.598;2023-12-28T04:15:28;2.30;99.90
16513;DHT22;8369;48.030;11.598;2023-12-28T04:17:55;2.30;99.90
16513;DHT22;8369;48.030;11.598;2023-12-28T04:20:22;2.40;99.90
16513;DHT22;8369;48.030;11.598;2023-12-28T04:22:50;2.40;99.90
16513;DHT22;8369;48.030;11.598;2023-12-28T04:25:18;2.40;99.90
16513;DHT22;8369;48.030;11.598;2023-12-28T04:27:44;2.40;99.90
16513;DHT22;8369;48.030;11.598;2023-12-28T04:30:14;2.50;99.90
16513;DHT22;8369;48.030;11.598;2023-12-28T04:32:41;2.50;99.90
16513;DHT22;8369;48.030;11.598;2023-12-28T04:35:09;2.50;99.90
16513;DHT22;8369;48.030;11.598;2023-12-28T04:37:37;2.50;99.90
16513;DHT22;8369;48.030;11.598;2023-12-28T04:40:04;2.40;99.90
16513;DHT22;8369;48.030;11.598;2023-12-28T04:42:32;2.50;99.90
16513;DHT22;8369;48.030;11.598;2023-12-28T04:44:59;2.40;99.90
16513;DHT22;8369;48.030;11.598;2023-12-28T04:47:26;2.40;99.90
16513;DHT22;8369;48.030;11.598;2023-12-28T04:49:54;2.40;99.90
16513;DHT22;8369;48.030;11.598;2023-12-28T04:52:21;2.40;99.90
16513;DHT22;8369;48.030;11.598;2023-12-28T04:54:48;2.30;99.90
16513;DHT22;8369;48.030;11.598;2023-12-28T04:57:15;2.30;99.90
16513;DHT22;8369;48.030;11.598;2023-12-28T04:59:42;2.30;99.90
16513;DHT22;8369;48.030;11.598;2023-12-28T05:02:12;2.20;99.90
16513;DHT22;8369;48.030;11.598;2023-12-28T05:04:39;2.20;99.90
16513;DHT22;8369;48.030;11.598;2023-12-28T05:07:05;2.20;99.90
16513;DHT22;8369;48.030;11.598;2023-12-28T05:09:32;2.10;99.90
16513;DHT22;8369;48.030;11.598;2023-12-28T05:12:01;2.10;99.90
16513;DHT22;8369;48.030;11.598;2023-12-28T05:14:30;2.10;99.90
16513;DHT22;8369;48.030;11.598;2023-12-28T05:16:57;2.10;99.90
16513;DHT22;8369;48.030;11.598;2023-12-28T05:19:24;2.00;99.90
16513;DHT22;8369;48.030;11.598;2023-12-28T05:21:52;2.00;99.90
16513;DHT22;8369;48.030;11.598;2023-12-28T05:24:19;2.00;99.90
16513;DHT22;8369;48.030;11.598;2023-12-28T05:26:45;2.00;99.90
16513;DHT22;8369;48.030;11.598;2023-12-28T05:29:13;2.00;99.90
16513;DHT22;8369;48.030;11.598;2023-12-28T05:31:39;2.00;99.90
16513;DHT22;8369;48.030;11.598;2023-12-28T05:34:06;2.00;99.90
16513;DHT22;8369;48.030;11.598;2023-12-28T05:36:33;2.10;99.90
16513;DHT22;8369;48.030;11.598;2023-12-28T05:39:01;2.10;99.90
16513;DHT22;8369;48.030;11.598;2023-12-28T05:41:28;2.20;99.90
16513;DHT22;8369;48.030;11.598;2023-12-28T05:43:54;2.30;99.90
16513;DHT22;8369;48.030;11.598;2023-12-28T05:46:21;2.30;99.90
16513;DHT22;8369;48.030;11.598;2023-12-28T05:48:49;2.40;99.90
16513;DHT22;8369;48.030;11.598;2023-12-28T05:51:17;2.40;99.90
16513;DHT22;8369;48.030;11.598;2023-12-28T05:53:45;2.50;99.90
16513;DHT22;8369;48.030;11.598;2023-12-28T05:56:11;2.50;99.90
16513;DHT22;8369;48.030;11.598;2023-12-28T05:58:38;2.50;99.90
16513;DHT22;8369;48.030;11.598;2023-12-28T06:01:05;2.60;99.90
16513;DHT22;8369;48.030;11.598;2023-12-28T06:03:31;2.70;99.90
16513;DHT22;8369;48.030;11.598;2023-12-28T06:05:58;2.70;99.90
16513;DHT22;8369;48.030;11.598;2023-12-28T06:08:25;2.80;99.90
16513;DHT22;8369;48.030;11.598;2023-12-28T06:10:55;2.80;99.90
16513;DHT22;8369;48.030;11.598;2023-12-28T06:13:23;2.90;99.90
16513;DHT22;8369;48.030;11.598;2023-12-28T06:15:50;2.90;99.90
16513;DHT22;8369;48.030;11.598;2023-12-28T06:18:17;3.00;99.90
16513;DHT22;8369;48.030;11.598;2023-12-28T06:20:46;3.10;99.90
16513;DHT22;8369;48.030;11.598;2023-12-28T06:23:13;3.10;99.90
16513;DHT22;8369;48.030;11.598;2023-12-28T06:25:39;3.20;99.90
16513;DHT22;8369;48.030;11.598;2023-12-28T06:28:06;3.30;99.90
16513;DHT22;8369;48.030;11.598;2023-12-28T06:30:35;3.30;99.90
16513;DHT22;8369;48.030;11.598;2023-12-28T06:33:02;3.40;99.90
16513;DHT22;8369;48.030;11.598;2023-12-28T06:35:30;3.50;99.90
16513;DHT22;8369;48.030;11.598;2023-12-28T06:37:57;3.50;99.90
16513;DHT22;8369;48.030;11.598;2023-12-28T06:40:25;3.60;99.90
16513;DHT22;8369;48.030;11.598;2023-12-28T06:42:54;3.60;99.90
16513;DHT22;8369;48.030;11.598;2023-12-28T06:45:21;3.60;99.90
16513;DHT22;8369;48.030;11.598;2023-12-28T06:47:57;3.70;99.90
16513;DHT22;8369;48.030;11.598;2023-12-28T06:50:24;3.70;99.90
16513;DHT22;8369;48.030;11.598;2023-12-28T06:52:53;3.70;99.90
16513;DHT22;8369;48.030;11.598;2023-12-28T06:55:20;3.70;99.90
16513;DHT22;8369;48.030;11.598;2023-12-28T06:57:48;3.60;99.90
16513;DHT22;8369;48.030;11.598;2023-12-28T07:00:14;3.60;99.90
16513;DHT22;8369;48.030;11.598;2023-12-28T07:02:42;3.60;99.90
16513;DHT22;8369;48.030;11.598;2023-12-28T07:05:09;3.50;99.90
16513;DHT22;8369;48.030;11.598;2023-12-28T07:07:38;3.50;99.90
16513;DHT22;8369;48.030;11.598;2023-12-28T07:10:06;3.40;99.90
16513;DHT22;8369;48.030;11.598;2023-12-28T07:12:32;3.30;99.90
16513;DHT22;8369;48.030;11.598;2023-12-28T07:14:59;3.20;99.90
16513;DHT22;8369;48.030;11.598;2023-12-28T07:17:26;3.20;99.90
16513;DHT22;8369;48.030;11.598;2023-12-28T07:19:53;3.10;99.90
16513;DHT22;8369;48.030;11.598;2023-12-28T07:22:20;3.00;99.90
16513;DHT22;8369;48.030;11.598;2023-12-28T07:24:47;2.90;99.90
16513;DHT22;8369;48.030;11.598;2023-12-28T07:27:14;2.90;99.90
16513;DHT22;8369;48.030;11.598;2023-12-28T07:29:41;2.80;99.90
16513;DHT22;8369;48.030;11.598;2023-12-28T07:32:07;2.70;99.90
16513;DHT22;8369;48.030;11.598;2023-12-28T07:34:35;2.70;99.90
16513;DHT22;8369;48.030;11.598;2023-12-28T07:37:02;2.60;99.90
16513;DHT22;8369;48.030;11.598;2023-12-28T07:39:29;2.60;99.90
16513;DHT22;8369;48.030;11.598;2023-12-28T07:41:55;2.50;99.90
16513;DHT22;8369;48.030;11.598;2023-12-28T07:44:22;2.50;99.90
16513;DHT22;8369;48.030;11.598;2023-12-28T07:46:49;2.40;99.90
16513;DHT22;8369;48.030;11.598;2023-12-28T07:49:17;2.40;99.90
16513;DHT22;8369;48.030;11.598;2023-12-28T07:51:44;2.40;99.90
16513;DHT22;8369;48.030;11.598;2023-12-28T07:54:11;2.30;99.90
16513;DHT22;8369;48.030;11.598;2023-12-28T07:56:39;2.30;99.90
16513;DHT22;8369;48.030;11.598;2023-12-28T07:59:06;2.30;99.90
16513;DHT22;8369;48.030;11.598;2023-12-28T08:01:35;2.30;99.90
16513;DHT22;8369;48.030;11.598;2023-12-28T08:04:02;2.30;99.90
16513;DHT22;8369;48.030;11.598;2023-12-28T08:06:31;2.30;99.90
16513;DHT22;8369;48.030;11.598;2023-12-28T08:09:00;2.40;99.90
16513;DHT22;8369;48.030;11.598;2023-12-28T08:11:28;2.40;99.90
16513;DHT22;8369;48.030;11.598;2023-12-28T08:13:56;2.50;99.90
16513;DHT22;8369;48.030;11.598;2023-12-28T08:16:23;2.60;99.90
16513;DHT22;8369;48.030;11.598;2023-12-28T08:18:54;2.60;99.90
16513;DHT22;8369;48.030;11.598;2023-12-28T08:21:21;2.70;99.90
16513;DHT22;8369;48.030;11.598;2023-12-28T08:23:48;2.80;99.90
16513;DHT22;8369;48.030;11.598;2023-12-28T08:26:17;2.90;99.90
16513;DHT22;8369;48.030;11.598;2023-12-28T08:28:45;3.00;99.90
16513;DHT22;8369;48.030;11.598;2023-12-28T08:31:17;3.10;99.90
16513;DHT22;8369;48.030;11.598;2023-12-28T08:33:45;3.20;99.90
16513;DHT22;8369;48.030;11.598;2023-12-28T08:36:15;3.30;99.90
16513;DHT22;8369;48.030;11.598;2023-12-28T08:38:52;3.40;99.90
16513;DHT22;8369;48.030;11.598;2023-12-28T08:41:22;3.50;99.90
16513;DHT22;8369;48.030;11.598;2023-12-28T08:43:57;3.70;99.90
16513;DHT22;8369;48.030;11.598;2023-12-28T08:46:27;3.80;99.90
16513;DHT22;8369;48.030;11.598;2023-12-28T08:48:56;4.00;99.90
16513;DHT22;8369;48.030;11.598;2023-12-28T08:51:27;4.10;99.90
16513;DHT22;8369;48.030;11.598;2023-12-28T08:53:59;4.30;99.90
16513;DHT22;8369;48.030;11.598;2023-12-28T08:56:29;4.40;99.90
16513;DHT22;8369;48.030;11.598;2023-12-28T08:59:02;4.60;99.90
16513;DHT22;8369;48.030;11.598;2023-12-28T09:01:33;4.80;99.90
16513;DHT22;8369;48.030;11.598;2023-12-28T09:04:10;5.00;99.90
16513;DHT22;8369;48.030;11.598;2023-12-28T09:06:38;5.10;99.90
16513;DHT22;8369;48.030;11.598;2023-12-28T09:09:10;5.30;99.90
16513;DHT22;8369;48.030;11.598;2023-12-28T09:11:40;5.40;99.90
16513;DHT22;8369;48.030;11.598;2023-12-28T09:14:09;5.60;99.90
16513;DHT22;8369;48.030;11.598;2023-12-28T09:16:40;5.70;99.90
16513;DHT22;8369;48.030;11.598;2023-12-28T09:19:12;5.80;99.90
16513;DHT22;8369;48.030;11.598;2023-12-28T09:21:42;5.90;99.90
16513;DHT22;8369;48.030;11.598;2023-12-28T09:24:11;6.00;99.90
16513;DHT22;8369;48.030;11.598;2023-12-28T09:26:40;6.10;99.90
16513;DHT22;8369;48.030;11.598;2023-12-28T09:29:09;6.20;99.90
16513;DHT22;8369;48.030;11.598;2023-12-28T09:31:39;6.30;99.90
16513;DHT22;8369;48.030;11.598;2023-12-28T09:34:06;6.30;99.90
16513;DHT22;8369;48.030;11.598;2023-12-28T09:36:34;6.40;99.90
16513;DHT22;8369;48.030;11.598;2023-12-28T09:39:02;6.50;99.90
16513;DHT22;8369;48.030;11.598;2023-12-28T09:41:35;6.60;99.90
16513;DHT22;8369;48.030;11.598;2023-12-28T09:44:11;6.60;99.90
16513;DHT22;8369;48.030;11.598;2023-12-28T09:46:41;6.70;99.90
16513;DHT22;8369;48.030;11.598;2023-12-28T09:49:13;6.80;99.90
16513;DHT22;8369;48.030;11.598;2023-12-28T09:51:40;6.80;99.90
16513;DHT22;8369;48.030;11.598;2023-12-28T09:54:07;6.90;99.70
16513;DHT22;8369;48.030;11.598;2023-12-28T09:56:35;6.90;99.50
16513;DHT22;8369;48.030;11.598;2023-12-28T09:59:03;7.00;98.90
16513;DHT22;8369;48.030;11.598;2023-12-28T10:01:35;7.10;98.30
16513;DHT22;8369;48.030;11.598;2023-12-28T10:04:08;7.20;98.00
16513;DHT22;8369;48.030;11.598;2023-12-28T10:06:36;7.20;97.90
16513;DHT22;8369;48.030;11.598;2023-12-28T10:09:07;7.30;97.60
16513;DHT22;8369;48.030;11.598;2023-12-28T10:11:36;7.30;97.50
16513;DHT22;8369;48.030;11.598;2023-12-28T10:14:05;7.40;97.30
16513;DHT22;8369;48.030;11.598;2023-12-28T10:16:33;7.50;97.20
16513;DHT22;8369;48.030;11.598;2023-12-28T10:19:05;7.50;96.70
16513;DHT22;8369;48.030;11.598;2023-12-28T10:21:33;7.60;96.80
16513;DHT22;8369;48.030;11.598;2023-12-28T10:24:02;7.60;96.40
16513;DHT22;8369;48.030;11.598;2023-12-28T10:26:30;7.60;92.80
16513;DHT22;8369;48.030;11.598;2023-12-28T10:29:00;7.70;93.30
16513;DHT22;8369;48.030;11.598;2023-12-28T10:31:29;7.80;94.10
16513;DHT22;8369;48.030;11.598;2023-12-28T10:34:01;7.80;94.50
16513;DHT22;8369;48.030;11.598;2023-12-28T10:36:29;7.90;94.20
16513;DHT22;8369;48.030;11.598;2023-12-28T10:39:04;7.90;94.50
16513;DHT22;8369;48.030;11.598;2023-12-28T10:41:34;8.00;93.90
16513;DHT22;8369;48.030;11.598;2023-12-28T10:44:05;8.00;92.40
16513;DHT22;8369;48.030;11.598;2023-12-28T10:46:39;8.10;93.10
16513;DHT22;8369;48.030;11.598;2023-12-28T10:49:12;8.20;91.60
16513;DHT22;8369;48.030;11.598;2023-12-28T10:51:42;8.20;87.60
16513;DHT22;8369;48.030;11.598;2023-12-28T10:54:33;8.30;90.30
16513;DHT22;8369;48.030;11.598;2023-12-28T10:57:22;8.40;90.90
16513;DHT22;8369;48.030;11.598;2023-12-28T11:00:13;8.40;91.30
16513;DHT22;8369;48.030;11.598;2023-12-28T11:02:48;8.50;91.40
16513;DHT22;8369;48.030;11.598;2023-12-28T11:05:20;8.50;91.20
16513;DHT22;8369;48.030;11.598;2023-12-28T11:07:50;8.60;91.10
16513;DHT22;8369;48.030;11.598;2023-12-28T11:10:23;8.60;90.60
16513;DHT22;8369;48.030;11.598;2023-12-28T11:12:53;8.60;88.60
16513;DHT22;8369;48.030;11.598;2023-12-28T11:15:23;8.70;90.20
16513;DHT22;8369;48.030;11.598;2023-12-28T11:17:51;8.70;88.30
16513;DHT22;8369;48.030;11.598;2023-12-28T11:20:19;8.80;89.40
16513;DHT22;8369;48.030;11.598;2023-12-28T11:22:49;8.80;90.00
16513;DHT22;8369;48.030;11.598;2023-12-28T11:25:19;8.80;90.10
16513;DHT22;8369;48.030;11.598;2023-12-28T11:27:49;8.80;90.30
16513;DHT22;8369;48.030;11.598;2023-12-28T11:30:17;8.80;90.50
16513;DHT22;8369;48.030;11.598;2023-12-28T11:32:46;8.80;90.80
16513;DHT22;8369;48.030;11.598;2023-12-28T11:35:14;8.80;91.00
16513;DHT22;8369;48.030;11.598;2023-12-28T11:37:48;8.80;91.10
16513;DHT22;8369;48.030;11.598;2023-12-28T11:40:21;8.80;91.00
16513;DHT22;8369;48.030;11.598;2023-12-28T11:42:53;8.90;91.00
16513;DHT22;8369;48.030;11.598;2023-12-28T11:45:23;8.90;90.90
16513;DHT22;8369;48.030;11.598;2023-12-28T11:48:01;8.90;91.10
16513;DHT22;8369;48.030;11.598;2023-12-28T11:50:31;8.90;91.00
16513;DHT22;8369;48.030;11.598;2023-12-28T11:53:01;9.00;90.90
16513;DHT22;8369;48.030;11.598;2023-12-28T11:55:30;9.00;91.10
16513;DHT22;8369;48.030;11.598;2023-12-28T11:58:02;9.00;91.20
16513;DHT22;8369;48.030;11.598;2023-12-28T12:00:31;9.00;90.20
16513;DHT22;8369;48.030;11.598;2023-12-28T12:03:00;9.00;90.40
16513;DHT22;8369;48.030;11.598;2023-12-28T12:05:31;9.00;90.50
16513;DHT22;8369;48.030;11.598;2023-12-28T12:08:00;9.00;90.60
16513;DHT22;8369;48.030;11.598;2023-12-28T12:10:33;9.00;90.40
16513;DHT22;8369;48.030;11.598;2023-12-28T12:13:01;9.00;90.40
16513;DHT22;8369;48.030;11.598;2023-12-28T12:15:34;9.00;90.30
16513;DHT22;8369;48.030;11.598;2023-12-28T12:18:03;9.10;90.20
16513;DHT22;8369;48.030;11.598;2023-12-28T12:20:34;9.10;88.80
16513;DHT22;8369;48.030;11.598;2023-12-28T12:23:06;9.10;89.20
16513;DHT22;8369;48.030;11.598;2023-12-28T12:25:36;9.10;89.50
16513;DHT22;8369;48.030;11.598;2023-12-28T12:28:08;9.10;88.60
16513;DHT22;8369;48.030;11.598;2023-12-28T12:30:35;9.10;89.40
16513;DHT22;8369;48.030;11.598;2023-12-28T12:33:02;9.10;89.40
16513;DHT22;8369;48.030;11.598;2023-12-28T12:35:29;9.10;89.50
16513;DHT22;8369;48.030;11.598;2023-12-28T12:37:57;9.10;89.70
16513;DHT22;8369;48.030;11.598;2023-12-28T12:40:26;9.10;90.10
16513;DHT22;8369;48.030;11.598;2023-12-28T12:42:55;9.10;90.20
16513;DHT22;8369;48.030;11.598;2023-12-28T12:45:23;9.10;90.00
16513;DHT22;8369;48.030;11.598;2023-12-28T12:47:51;9.00;90.10
16513;DHT22;8369;48.030;11.598;2023-12-28T12:50:18;9.00;89.70
16513;DHT22;8369;48.030;11.598;2023-12-28T12:52:47;9.00;88.90
16513;DHT22;8369;48.030;11.598;2023-12-28T12:55:14;9.00;89.20
16513;DHT22;8369;48.030;11.598;2023-12-28T12:57:41;9.00;89.40
16513;DHT22;8369;48.030;11.598;2023-12-28T13:00:12;9.00;89.80
16513;DHT22;8369;48.030;11.598;2023-12-28T13:02:39;8.90;89.70
16513;DHT22;8369;48.030;11.598;2023-12-28T13:05:08;8.90;89.70
16513;DHT22;8369;48.030;11.598;2023-12-28T13:07:35;8.90;88.50
16513;DHT22;8369;48.030;11.598;2023-12-28T13:10:02;9.00;87.20
16513;DHT22;8369;48.030;11.598;2023-12-28T13:12:29;9.00;85.70
16513;DHT22;8369;48.030;11.598;2023-12-28T13:14:56;9.00;86.60
16513;DHT22;8369;48.030;11.598;2023-12-28T13:17:24;9.00;86.00
16513;DHT22;8369;48.030;11.598;2023-12-28T13:19:51;9.00;86.60
16513;DHT22;8369;48.030;11.598;2023-12-28T13:22:18;9.00;87.60
16513;DHT22;8369;48.030;11.598;2023-12-28T13:24:46;9.00;87.70
16513;DHT22;8369;48.030;11.598;2023-12-28T13:27:12;9.00;88.30
16513;DHT22;8369;48.030;11.598;2023-12-28T13:29:41;9.00;88.30
16513;DHT22;8369;48.030;11.598;2023-12-28T13:32:09;9.00;88.60
16513;DHT22;8369;48.030;11.598;2023-12-28T13:34:37;9.00;87.10
16513;DHT22;8369;48.030;11.598;2023-12-28T13:37:04;9.00;87.60
16513;DHT22;8369;48.030;11.598;2023-12-28T13:39:30;9.00;87.60
16513;DHT22;8369;48.030;11.598;2023-12-28T13:41:58;9.00;87.10
16513;DHT22;8369;48.030;11.598;2023-12-28T13:44:25;9.00;87.60
16513;DHT22;8369;48.030;11.598;2023-12-28T13:46:54;9.00;84.80
16513;DHT22;8369;48.030;11.598;2023-12-28T13:49:24;9.00;85.60
16513;DHT22;8369;48.030;11.598;2023-12-28T13:51:52;9.00;86.20
16513;DHT22;8369;48.030;11.598;2023-12-28T13:54:20;9.00;86.60
16513;DHT22;8369;48.030;11.598;2023-12-28T13:56:47;9.00;86.90
16513;DHT22;8369;48.030;11.598;2023-12-28T13:59:14;9.00;86.80
16513;DHT22;8369;48.030;11.598;2023-12-28T14:01:41;9.00;87.40
16513;DHT22;8369;48.030;11.598;2023-12-28T14:04:08;9.00;87.70
16513;DHT22;8369;48.030;11.598;2023-12-28T14:06:35;9.00;86.60
16513;DHT22;8369;48.030;11.598;2023-12-28T14:09:05;9.00;87.20
16513;DHT22;8369;48.030;11.598;2023-12-28T14:11:31;8.90;87.60
16513;DHT22;8369;48.030;11.598;2023-12-28T14:13:57;8.90;87.60
16513;DHT22;8369;48.030;11.598;2023-12-28T14:16:24;8.90;88.00
16513;DHT22;8369;48.030;11.598;2023-12-28T14:18:52;8.90;88.00
16513;DHT22;8369;48.030;11.598;2023-12-28T14:21:19;8.80;88.00
16513;DHT22;8369;48.030;11.598;2023-12-28T14:24:06;8.80;88.20
16513;DHT22;8369;48.030;11.598;2023-12-28T14:26:56;8.80;88.50
16513;DHT22;8369;48.030;11.598;2023-12-28T14:29:29;8.80;88.60
16513;DHT22;8369;48.030;11.598;2023-12-28T14:32:04;8.80;88.50
16513;DHT22;8369;48.030;11.598;2023-12-28T14:34:31;8.80;88.80
16513;DHT22;8369;48.030;11.598;2023-12-28T14:37:00;8.80;88.30
16513;DHT22;8369;48.030;11.598;2023-12-28T14:39:32;8.80;88.20
16513;DHT22;8369;48.030;11.598;2023-12-28T14:41:59;8.70;88.20
16513;DHT22;8369;48.030;11.598;2023-12-28T14:44:30;8.70;88.30
16513;DHT22;8369;48.030;11.598;2023-12-28T14:46:58;8.70;88.50
16513;DHT22;8369;48.030;11.598;2023-12-28T14:49:25;8.70;88.60
16513;DHT22;8369;48.030;11.598;2023-12-28T14:51:54;8.70;88.60
16513;DHT22;8369;48.030;11.598;2023-12-28T14:54:26;8.60;88.80
16513;DHT22;8369;48.030;11.598;2023-12-28T14:56:58;8.60;88.90
16513;DHT22;8369;48.030;11.598;2023-12-28T14:59:27;8.60;88.90
16513;DHT22;8369;48.030;11.598;2023-12-28T15:01:55;8.60;88.90
16513;DHT22;8369;48.030;11.598;2023-12-28T15:04:25;8.60;88.60
16513;DHT22;8369;48.030;11.598;2023-12-28T15:06:56;8.60;88.30
16513;DHT22;8369;48.030;11.598;2023-12-28T15:09:23;8.60;88.30
16513;DHT22;8369;48.030;11.598;2023-12-28T15:11:51;8.50;88.50
16513;DHT22;8369;48.030;11.598;2023-12-28T15:14:19;8.50;88.50
16513;DHT22;8369;48.030;11.598;2023-12-28T15:16:46;8.50;87.90
16513;DHT22;8369;48.030;11.598;2023-12-28T15:19:21;8.50;87.70
16513;DHT22;8369;48.030;11.598;2023-12-28T15:21:51;8.50;87.70
16513;DHT22;8369;48.030;11.598;2023-12-28T15:24:17;8.40;87.40
16513;DHT22;8369;48.030;11.598;2023-12-28T15:26:49;8.50;85.10
16513;DHT22;8369;48.030;11.598;2023-12-28T15:29:16;8.40;85.90
16513;DHT22;8369;48.030;11.598;2023-12-28T15:31:44;8.40;86.20
16513;DHT22;8369;48.030;11.598;2023-12-28T15:34:11;8.40;86.00
16513;DHT22;8369;48.030;11.598;2023-12-28T15:36:43;8.40;86.50
16513;DHT22;8369;48.030;11.598;2023-12-28T15:39:35;8.40;85.70
16513;DHT22;8369;48.030;11.598;2023-12-28T15:42:09;8.40;86.50
16513;DHT22;8369;48.030;11.598;2023-12-28T15:44:43;8.40;86.90
16513;DHT22;8369;48.030;11.598;2023-12-28T15:47:10;8.30;87.20
16513;DHT22;8369;48.030;11.598;2023-12-28T15:49:45;8.40;87.10
16513;DHT22;8369;48.030;11.598;2023-12-28T15:52:22;8.30;86.60
16513;DHT22;8369;48.030;11.598;2023-12-28T15:54:57;8.30;87.10
16513;DHT22;8369;48.030;11.598;2023-12-28T15:57:41;8.30;87.10
16513;DHT22;8369;48.030;11.598;2023-12-28T16:00:12;8.30;86.60